Hauptseite
METAR-TAF:

METAR-TAF

Flughäfen :

Flughafen Tetouan Sania Ramel

Tétouan, Marokko

Breite: 35-35N, Länge: 005-20W, Höhe: 10 m

Beobachtung

Neuester Wetterbericht von vor 1 Stunde und 14 Minuten, um 10:00 UTC
Wind 17 kt aus Ost
Temperatur 16°C
Luftfeuchtigkeit 88%
Luftdruck 1030 hPa
Sichtweite: 8000 m
Aufgelockert bewölkt in der Höhe von 1300 ft
Durchbrochene Bewölkung in der Höhe von 2000 ft

METAR: GMTN 221000Z 09017KT 8000 SCT013 BKN020 16/14 Q1030 NOSIG

Zeit: 12:14 (11:14 UTC)


TAF: fehlend

Wetterbeobachtungen und Prognosen von mehr als 4000 Flughäfen (METAR und TAF Bericht).

Die verfügbaren Stationen werden durch gelbe und rote Markierungen auf der Karte dargestellt.

Führen Sie die Maus auf sie, um den Namen der Station zu sehen.

Darauf klicken, um die Beobachtung von Wetterbeobachtungen und Prognosen zu sehen.

Um die Karte zu ändern : klicken Sie auf den grünen Tasten mit einem schwarzen Kreuz Zum Vergrößern, auf den grünen Button mit einem Gedankenstrich zu verkleinern, oder auf die grünen Pfeile für benachbarte Karten.


METAR-TAF: